sensor_id;sensor_type;location;lat;lon;timestamp;pressure;altitude;pressure_sealevel;temperature;humidity
58662;BME280;44432;49.786;22.760;2022-09-12T00:02:04;98805.08;;;11.71;87.37
58662;BME280;44432;49.786;22.760;2022-09-12T00:04:35;98801.58;;;11.71;87.44
58662;BME280;44432;49.786;22.760;2022-09-12T00:07:06;98798.30;;;11.70;87.38
58662;BME280;44432;49.786;22.760;2022-09-12T00:09:36;98799.28;;;11.69;87.24
58662;BME280;44432;49.786;22.760;2022-09-12T00:12:07;98800.44;;;11.69;87.29
58662;BME280;44432;49.786;22.760;2022-09-12T00:14:38;98801.42;;;11.68;87.22
58662;BME280;44432;49.786;22.760;2022-09-12T00:17:08;98807.11;;;11.67;87.28
58662;BME280;44432;49.786;22.760;2022-09-12T00:19:40;98802.05;;;11.65;87.22
58662;BME280;44432;49.786;22.760;2022-09-12T00:22:11;98802.85;;;11.63;87.53
58662;BME280;44432;49.786;22.760;2022-09-12T00:24:41;98802.80;;;11.61;87.46
58662;BME280;44432;49.786;22.760;2022-09-12T00:27:12;98801.61;;;11.60;87.44
58662;BME280;44432;49.786;22.760;2022-09-12T00:29:42;98799.32;;;11.59;87.35
58662;BME280;44432;49.786;22.760;2022-09-12T00:32:13;98798.96;;;11.58;87.30
58662;BME280;44432;49.786;22.760;2022-09-12T00:34:44;98796.09;;;11.57;87.41
58662;BME280;44432;49.786;22.760;2022-09-12T00:37:14;98790.73;;;11.56;87.51
58662;BME280;44432;49.786;22.760;2022-09-12T00:39:45;98793.93;;;11.55;87.51
58662;BME280;44432;49.786;22.760;2022-09-12T00:42:15;98798.23;;;11.56;87.69
58662;BME280;44432;49.786;22.760;2022-09-12T00:44:49;98801.73;;;11.56;87.54
58662;BME280;44432;49.786;22.760;2022-09-12T00:47:23;98796.75;;;11.56;87.59
58662;BME280;44432;49.786;22.760;2022-09-12T00:50:00;98799.55;;;11.55;87.47
58662;BME280;44432;49.786;22.760;2022-09-12T00:52:36;98797.38;;;11.53;87.37
58662;BME280;44432;49.786;22.760;2022-09-12T00:55:12;98794.36;;;11.51;87.34
58662;BME280;44432;49.786;22.760;2022-09-12T00:57:48;98794.02;;;11.50;87.18
58662;BME280;44432;49.786;22.760;2022-09-12T01:00:22;98790.23;;;11.48;87.27
58662;BME280;44432;49.786;22.760;2022-09-12T01:02:56;98788.30;;;11.46;87.39
58662;BME280;44432;49.786;22.760;2022-09-12T01:05:28;98789.06;;;11.45;87.40
58662;BME280;44432;49.786;22.760;2022-09-12T01:08:01;98785.81;;;11.43;87.15
58662;BME280;44432;49.786;22.760;2022-09-12T01:10:34;98783.20;;;11.42;87.45
58662;BME280;44432;49.786;22.760;2022-09-12T01:13:08;98785.95;;;11.41;87.47
58662;BME280;44432;49.786;22.760;2022-09-12T01:15:38;98784.13;;;11.40;87.17
58662;BME280;44432;49.786;22.760;2022-09-12T01:18:16;98786.88;;;11.39;87.56
58662;BME280;44432;49.786;22.760;2022-09-12T01:20:58;98789.98;;;11.38;87.38
58662;BME280;44432;49.786;22.760;2022-09-12T01:23:59;98788.90;;;11.37;87.26
58662;BME280;44432;49.786;22.760;2022-09-12T01:27:16;98790.84;;;11.36;87.19
58662;BME280;44432;49.786;22.760;2022-09-12T01:33:40;98791.86;;;11.35;86.83
58662;BME280;44432;49.786;22.760;2022-09-12T01:36:31;98790.98;;;11.34;86.64
58662;BME280;44432;49.786;22.760;2022-09-12T01:39:05;98790.35;;;11.33;86.48
58662;BME280;44432;49.786;22.760;2022-09-12T01:41:45;98794.14;;;11.32;86.16
58662;BME280;44432;49.786;22.760;2022-09-12T01:44:27;98792.37;;;11.32;86.00
58662;BME280;44432;49.786;22.760;2022-09-12T01:47:07;98790.97;;;11.30;86.00
58662;BME280;44432;49.786;22.760;2022-09-12T01:49:43;98792.65;;;11.30;85.85
58662;BME280;44432;49.786;22.760;2022-09-12T01:52:24;98792.09;;;11.29;85.59
58662;BME280;44432;49.786;22.760;2022-09-12T01:55:00;98790.60;;;11.28;85.72
58662;BME280;44432;49.786;22.760;2022-09-12T01:57:36;98790.96;;;11.26;85.51
58662;BME280;44432;49.786;22.760;2022-09-12T02:00:12;98795.11;;;11.25;85.34
58662;BME280;44432;49.786;22.760;2022-09-12T02:02:48;98801.45;;;11.24;85.32
58662;BME280;44432;49.786;22.760;2022-09-12T02:05:22;98795.48;;;11.22;84.93
58662;BME280;44432;49.786;22.760;2022-09-12T02:08:02;98791.55;;;11.22;84.87
58662;BME280;44432;49.786;22.760;2022-09-12T02:10:42;98787.48;;;11.19;84.55
58662;BME280;44432;49.786;22.760;2022-09-12T02:13:18;98795.68;;;11.18;84.45
58662;BME280;44432;49.786;22.760;2022-09-12T02:15:53;98794.34;;;11.16;84.69
58662;BME280;44432;49.786;22.760;2022-09-12T02:18:27;98794.52;;;11.13;84.61
58662;BME280;44432;49.786;22.760;2022-09-12T02:21:00;98793.59;;;11.11;84.54
58662;BME280;44432;49.786;22.760;2022-09-12T02:23:35;98793.46;;;11.09;84.73
58662;BME280;44432;49.786;22.760;2022-09-12T02:26:12;98791.55;;;11.06;84.57
58662;BME280;44432;49.786;22.760;2022-09-12T02:28:47;98786.95;;;11.04;84.66
58662;BME280;44432;49.786;22.760;2022-09-12T02:31:22;98787.71;;;11.03;84.79
58662;BME280;44432;49.786;22.760;2022-09-12T02:34:03;98788.17;;;11.02;84.86
58662;BME280;44432;49.786;22.760;2022-09-12T02:36:40;98794.37;;;11.00;84.94
58662;BME280;44432;49.786;22.760;2022-09-12T02:39:15;98794.02;;;10.99;85.01
58662;BME280;44432;49.786;22.760;2022-09-12T02:41:51;98794.52;;;10.98;85.03
58662;BME280;44432;49.786;22.760;2022-09-12T02:44:24;98795.23;;;10.97;84.80
58662;BME280;44432;49.786;22.760;2022-09-12T02:46:59;98800.73;;;10.97;84.98
58662;BME280;44432;49.786;22.760;2022-09-12T02:49:31;98794.61;;;10.95;85.07
58662;BME280;44432;49.786;22.760;2022-09-12T02:52:03;98802.71;;;10.94;84.87
58662;BME280;44432;49.786;22.760;2022-09-12T02:54:33;98800.83;;;10.93;85.11
58662;BME280;44432;49.786;22.760;2022-09-12T02:57:16;98803.20;;;10.92;85.26
58662;BME280;44432;49.786;22.760;2022-09-12T02:59:47;98797.70;;;10.90;85.29
58662;BME280;44432;49.786;22.760;2022-09-12T03:02:27;98791.81;;;10.89;85.30
58662;BME280;44432;49.786;22.760;2022-09-12T03:05:09;98780.44;;;10.89;85.41
58662;BME280;44432;49.786;22.760;2022-09-12T03:08:16;98777.70;;;10.88;85.38
58662;BME280;44432;49.786;22.760;2022-09-12T03:11:03;98780.05;;;10.85;85.30
58662;BME280;44432;49.786;22.760;2022-09-12T03:13:42;98773.50;;;10.86;85.34
58662;BME280;44432;49.786;22.760;2022-09-12T03:16:24;98774.73;;;10.86;85.25
58662;BME280;44432;49.786;22.760;2022-09-12T03:19:02;98771.05;;;10.84;85.29
58662;BME280;44432;49.786;22.760;2022-09-12T03:21:46;98773.34;;;10.83;84.83
58662;BME280;44432;49.786;22.760;2022-09-12T03:24:28;98785.64;;;10.81;84.85
58662;BME280;44432;49.786;22.760;2022-09-12T03:27:07;98791.36;;;10.79;84.86
58662;BME280;44432;49.786;22.760;2022-09-12T03:29:41;98791.09;;;10.77;84.58
58662;BME280;44432;49.786;22.760;2022-09-12T03:32:12;98791.19;;;10.76;84.53
58662;BME280;44432;49.786;22.760;2022-09-12T03:34:43;98792.03;;;10.77;84.60
58662;BME280;44432;49.786;22.760;2022-09-12T03:37:14;98792.23;;;10.77;84.28
58662;BME280;44432;49.786;22.760;2022-09-12T03:39:44;98795.77;;;10.76;84.23
58662;BME280;44432;49.786;22.760;2022-09-12T03:42:15;98796.02;;;10.76;84.17
58662;BME280;44432;49.786;22.760;2022-09-12T03:44:45;98795.64;;;10.75;84.21
58662;BME280;44432;49.786;22.760;2022-09-12T03:47:16;98797.70;;;10.75;84.18
58662;BME280;44432;49.786;22.760;2022-09-12T03:49:46;98798.89;;;10.75;83.97
58662;BME280;44432;49.786;22.760;2022-09-12T03:52:17;98799.33;;;10.73;84.07
58662;BME280;44432;49.786;22.760;2022-09-12T03:54:47;98806.49;;;10.74;83.98
58662;BME280;44432;49.786;22.760;2022-09-12T03:57:18;98806.59;;;10.74;83.82
58662;BME280;44432;49.786;22.760;2022-09-12T03:59:50;98801.87;;;10.73;83.85
58662;BME280;44432;49.786;22.760;2022-09-12T04:02:20;98803.57;;;10.74;83.88
58662;BME280;44432;49.786;22.760;2022-09-12T04:04:51;98803.37;;;10.74;83.89
58662;BME280;44432;49.786;22.760;2022-09-12T04:07:21;98808.65;;;10.74;84.01
58662;BME280;44432;49.786;22.760;2022-09-12T04:09:52;98805.11;;;10.74;84.03
58662;BME280;44432;49.786;22.760;2022-09-12T04:12:23;98807.30;;;10.75;83.77
58662;BME280;44432;49.786;22.760;2022-09-12T04:14:53;98806.93;;;10.75;83.55
58662;BME280;44432;49.786;22.760;2022-09-12T04:17:24;98809.27;;;10.76;83.63
58662;BME280;44432;49.786;22.760;2022-09-12T04:19:54;98811.55;;;10.76;83.55
58662;BME280;44432;49.786;22.760;2022-09-12T04:22:25;98814.65;;;10.75;83.51
58662;BME280;44432;49.786;22.760;2022-09-12T04:24:56;98819.56;;;10.75;83.38
58662;BME280;44432;49.786;22.760;2022-09-12T04:27:26;98819.48;;;10.76;83.59
58662;BME280;44432;49.786;22.760;2022-09-12T04:29:57;98826.98;;;10.76;83.49
58662;BME280;44432;49.786;22.760;2022-09-12T04:32:29;98830.33;;;10.77;83.44
58662;BME280;44432;49.786;22.760;2022-09-12T04:35:00;98829.04;;;10.78;83.57
58662;BME280;44432;49.786;22.760;2022-09-12T04:37:31;98828.16;;;10.79;83.43
58662;BME280;44432;49.786;22.760;2022-09-12T04:40:01;98828.30;;;10.80;83.37
58662;BME280;44432;49.786;22.760;2022-09-12T04:42:32;98830.39;;;10.82;83.44
58662;BME280;44432;49.786;22.760;2022-09-12T04:45:03;98826.31;;;10.83;83.55
58662;BME280;44432;49.786;22.760;2022-09-12T04:47:34;98833.64;;;10.85;83.04
58662;BME280;44432;49.786;22.760;2022-09-12T04:50:06;98836.39;;;10.85;83.03
58662;BME280;44432;49.786;22.760;2022-09-12T04:52:36;98836.30;;;10.84;83.01
58662;BME280;44432;49.786;22.760;2022-09-12T04:55:09;98841.17;;;10.84;82.76
58662;BME280;44432;49.786;22.760;2022-09-12T04:57:39;98844.81;;;10.82;82.80
58662;BME280;44432;49.786;22.760;2022-09-12T05:00:12;98844.91;;;10.84;82.69
58662;BME280;44432;49.786;22.760;2022-09-12T05:02:43;98847.37;;;10.85;82.57
58662;BME280;44432;49.786;22.760;2022-09-12T05:05:14;98845.77;;;10.86;82.61
58662;BME280;44432;49.786;22.760;2022-09-12T05:07:45;98852.28;;;10.89;82.69
58662;BME280;44432;49.786;22.760;2022-09-12T05:10:16;98849.20;;;10.91;82.37
58662;BME280;44432;49.786;22.760;2022-09-12T05:12:47;98850.59;;;10.91;82.47
58662;BME280;44432;49.786;22.760;2022-09-12T05:15:17;98851.83;;;10.92;82.25
58662;BME280;44432;49.786;22.760;2022-09-12T05:17:48;98856.45;;;10.93;82.39
58662;BME280;44432;49.786;22.760;2022-09-12T05:20:19;98853.88;;;10.93;82.21
58662;BME280;44432;49.786;22.760;2022-09-12T05:22:49;98857.38;;;10.94;82.09
58662;BME280;44432;49.786;22.760;2022-09-12T05:25:20;98864.73;;;10.94;82.48
58662;BME280;44432;49.786;22.760;2022-09-12T05:27:53;98864.22;;;10.95;82.17
58662;BME280;44432;49.786;22.760;2022-09-12T05:30:24;98863.65;;;10.95;82.36
58662;BME280;44432;49.786;22.760;2022-09-12T05:32:54;98867.34;;;10.95;82.14
58662;BME280;44432;49.786;22.760;2022-09-12T05:35:25;98871.27;;;10.94;82.32
58662;BME280;44432;49.786;22.760;2022-09-12T05:37:56;98872.87;;;10.93;82.28
58662;BME280;44432;49.786;22.760;2022-09-12T05:40:26;98874.75;;;10.92;82.00
58662;BME280;44432;49.786;22.760;2022-09-12T05:42:57;98875.14;;;10.90;82.02
58662;BME280;44432;49.786;22.760;2022-09-12T05:45:28;98870.85;;;10.88;82.22
58662;BME280;44432;49.786;22.760;2022-09-12T05:47:58;98873.17;;;10.88;82.35
58662;BME280;44432;49.786;22.760;2022-09-12T05:50:30;98869.48;;;10.90;82.03
58662;BME280;44432;49.786;22.760;2022-09-12T05:53:01;98870.50;;;10.90;81.93
58662;BME280;44432;49.786;22.760;2022-09-12T05:55:32;98868.86;;;10.89;82.37
58662;BME280;44432;49.786;22.760;2022-09-12T05:58:03;98877.77;;;10.90;81.94
58662;BME280;44432;49.786;22.760;2022-09-12T06:00:33;98874.13;;;10.90;81.99
58662;BME280;44432;49.786;22.760;2022-09-12T06:03:04;98870.30;;;10.87;82.01
58662;BME280;44432;49.786;22.760;2022-09-12T06:05:34;98869.66;;;10.87;81.78
58662;BME280;44432;49.786;22.760;2022-09-12T06:08:05;98875.11;;;10.89;81.70
58662;BME280;44432;49.786;22.760;2022-09-12T06:10:35;98868.04;;;10.89;81.68
58662;BME280;44432;49.786;22.760;2022-09-12T06:13:06;98873.83;;;10.90;81.59
58662;BME280;44432;49.786;22.760;2022-09-12T06:15:38;98875.56;;;10.92;81.64
58662;BME280;44432;49.786;22.760;2022-09-12T06:18:10;98873.70;;;10.94;81.73
58662;BME280;44432;49.786;22.760;2022-09-12T06:20:41;98868.64;;;10.96;81.63
58662;BME280;44432;49.786;22.760;2022-09-12T06:23:12;98872.98;;;10.99;81.64
58662;BME280;44432;49.786;22.760;2022-09-12T06:25:47;98874.78;;;11.01;81.51
58662;BME280;44432;49.786;22.760;2022-09-12T06:28:18;98877.91;;;11.03;81.33
58662;BME280;44432;49.786;22.760;2022-09-12T06:30:49;98877.46;;;11.04;81.18
58662;BME280;44432;49.786;22.760;2022-09-12T06:33:20;98880.04;;;11.06;81.33
58662;BME280;44432;49.786;22.760;2022-09-12T06:35:50;98882.41;;;11.07;81.31
58662;BME280;44432;49.786;22.760;2022-09-12T06:38:21;98881.84;;;11.10;81.26
58662;BME280;44432;49.786;22.760;2022-09-12T06:40:51;98889.24;;;11.12;81.17
58662;BME280;44432;49.786;22.760;2022-09-12T06:43:23;98888.30;;;11.13;81.01
58662;BME280;44432;49.786;22.760;2022-09-12T06:45:53;98895.13;;;11.13;80.96
58662;BME280;44432;49.786;22.760;2022-09-12T06:48:24;98902.29;;;11.16;81.18
58662;BME280;44432;49.786;22.760;2022-09-12T06:50:59;98906.83;;;11.20;80.92
58662;BME280;44432;49.786;22.760;2022-09-12T06:53:31;98910.57;;;11.20;81.03
58662;BME280;44432;49.786;22.760;2022-09-12T06:56:05;98911.70;;;11.14;81.10
58662;BME280;44432;49.786;22.760;2022-09-12T06:58:35;98916.89;;;11.07;81.23
58662;BME280;44432;49.786;22.760;2022-09-12T07:01:07;98914.51;;;10.97;81.64
58662;BME280;44432;49.786;22.760;2022-09-12T07:03:39;98914.95;;;10.86;81.94
58662;BME280;44432;49.786;22.760;2022-09-12T07:06:12;98913.64;;;10.78;82.25
58662;BME280;44432;49.786;22.760;2022-09-12T07:08:43;98919.14;;;10.74;82.56
58662;BME280;44432;49.786;22.760;2022-09-12T07:11:16;98919.41;;;10.71;82.88
58662;BME280;44432;49.786;22.760;2022-09-12T07:13:50;98920.40;;;10.67;83.16
58662;BME280;44432;49.786;22.760;2022-09-12T07:16:21;98925.94;;;10.63;83.42
58662;BME280;44432;49.786;22.760;2022-09-12T07:18:53;98926.39;;;10.58;83.84
58662;BME280;44432;49.786;22.760;2022-09-12T07:21:24;98931.63;;;10.55;83.94
58662;BME280;44432;49.786;22.760;2022-09-12T07:23:55;98934.48;;;10.54;84.36
58662;BME280;44432;49.786;22.760;2022-09-12T07:26:28;98942.23;;;10.54;84.37
58662;BME280;44432;49.786;22.760;2022-09-12T07:28:59;98944.95;;;10.51;84.33
58662;BME280;44432;49.786;22.760;2022-09-12T07:31:29;98955.07;;;10.50;84.50
58662;BME280;44432;49.786;22.760;2022-09-12T07:34:00;98961.59;;;10.48;84.57
58662;BME280;44432;49.786;22.760;2022-09-12T07:36:34;98966.63;;;10.48;84.81
58662;BME280;44432;49.786;22.760;2022-09-12T07:39:05;98967.48;;;10.48;84.92
58662;BME280;44432;49.786;22.760;2022-09-12T07:41:35;98968.28;;;10.48;84.97
58662;BME280;44432;49.786;22.760;2022-09-12T07:44:06;98964.42;;;10.48;85.03
58662;BME280;44432;49.786;22.760;2022-09-12T07:46:37;98969.16;;;10.50;85.30
58662;BME280;44432;49.786;22.760;2022-09-12T07:49:10;98970.97;;;10.52;85.40
58662;BME280;44432;49.786;22.760;2022-09-12T07:51:41;98973.25;;;10.54;85.22
58662;BME280;44432;49.786;22.760;2022-09-12T07:54:11;98972.83;;;10.56;85.32
58662;BME280;44432;49.786;22.760;2022-09-12T07:56:42;98973.82;;;10.59;85.11
58662;BME280;44432;49.786;22.760;2022-09-12T07:59:14;98968.74;;;10.66;85.56
58662;BME280;44432;49.786;22.760;2022-09-12T08:01:45;98975.75;;;10.71;85.75
58662;BME280;44432;49.786;22.760;2022-09-12T08:04:16;98972.23;;;10.73;85.36
58662;BME280;44432;49.786;22.760;2022-09-12T08:06:46;98975.85;;;10.76;85.43
58662;BME280;44432;49.786;22.760;2022-09-12T08:09:17;98966.86;;;10.74;85.44
58662;BME280;44432;49.786;22.760;2022-09-12T08:11:47;98975.63;;;10.82;85.27
58662;BME280;44432;49.786;22.760;2022-09-12T08:14:18;98974.52;;;10.81;85.23
58662;BME280;44432;49.786;22.760;2022-09-12T08:16:50;98980.45;;;10.80;85.36
58662;BME280;44432;49.786;22.760;2022-09-12T08:19:20;98983.02;;;10.82;85.72
58662;BME280;44432;49.786;22.760;2022-09-12T08:21:52;98980.30;;;10.83;85.37
58662;BME280;44432;49.786;22.760;2022-09-12T08:24:22;98980.95;;;10.85;85.58
58662;BME280;44432;49.786;22.760;2022-09-12T08:26:54;98984.77;;;10.92;85.69
58662;BME280;44432;49.786;22.760;2022-09-12T08:29:24;98986.95;;;10.97;85.33
58662;BME280;44432;49.786;22.760;2022-09-12T08:31:55;98984.22;;;11.04;84.93
58662;BME280;44432;49.786;22.760;2022-09-12T08:34:26;98980.80;;;11.08;84.83
58662;BME280;44432;49.786;22.760;2022-09-12T08:36:56;98982.48;;;11.13;84.99
58662;BME280;44432;49.786;22.760;2022-09-12T08:39:27;98982.40;;;11.20;84.72
58662;BME280;44432;49.786;22.760;2022-09-12T08:42:01;98977.88;;;11.29;85.07
58662;BME280;44432;49.786;22.760;2022-09-12T08:44:42;98984.09;;;11.39;84.62
58662;BME280;44432;49.786;22.760;2022-09-12T08:47:20;98985.09;;;11.47;84.05
58662;BME280;44432;49.786;22.760;2022-09-12T08:50:03;98980.61;;;11.50;83.68
58662;BME280;44432;49.786;22.760;2022-09-12T08:52:40;98989.19;;;11.53;83.36
58662;BME280;44432;49.786;22.760;2022-09-12T08:55:26;98992.14;;;11.54;83.41
58662;BME280;44432;49.786;22.760;2022-09-12T08:57:59;98993.68;;;11.61;83.34
58662;BME280;44432;49.786;22.760;2022-09-12T09:00:38;98998.64;;;11.66;83.13
58662;BME280;44432;49.786;22.760;2022-09-12T09:03:28;98999.63;;;11.68;82.85
58662;BME280;44432;49.786;22.760;2022-09-12T09:06:09;98996.66;;;11.63;82.84
58662;BME280;44432;49.786;22.760;2022-09-12T09:08:48;99001.04;;;11.61;83.12
58662;BME280;44432;49.786;22.760;2022-09-12T09:11:41;99002.13;;;11.62;82.84
58662;BME280;44432;49.786;22.760;2022-09-12T09:14:29;99009.87;;;11.69;82.72
58662;BME280;44432;49.786;22.760;2022-09-12T09:17:24;99006.45;;;11.75;82.39
58662;BME280;44432;49.786;22.760;2022-09-12T09:20:01;99007.52;;;11.86;82.73
58662;BME280;44432;49.786;22.760;2022-09-12T09:22:39;99011.11;;;11.96;82.54
58662;BME280;44432;49.786;22.760;2022-09-12T09:25:16;99006.00;;;12.08;82.50
58662;BME280;44432;49.786;22.760;2022-09-12T09:27:54;99006.84;;;12.19;82.30
58662;BME280;44432;49.786;22.760;2022-09-12T09:30:27;99007.16;;;12.31;81.83
58662;BME280;44432;49.786;22.760;2022-09-12T09:33:00;99007.05;;;12.40;81.72
58662;BME280;44432;49.786;22.760;2022-09-12T09:35:40;99011.95;;;12.41;81.08
58662;BME280;44432;49.786;22.760;2022-09-12T09:38:22;99010.69;;;12.44;81.03
58662;BME280;44432;49.786;22.760;2022-09-12T09:41:09;99011.19;;;12.49;80.93
58662;BME280;44432;49.786;22.760;2022-09-12T09:43:43;99013.79;;;12.54;80.76
58662;BME280;44432;49.786;22.760;2022-09-12T09:46:14;99018.71;;;12.58;80.71
58662;BME280;44432;49.786;22.760;2022-09-12T09:48:47;99017.19;;;12.64;80.23
58662;BME280;44432;49.786;22.760;2022-09-12T09:51:24;99020.64;;;12.66;80.42
58662;BME280;44432;49.786;22.760;2022-09-12T09:53:59;99025.99;;;12.69;80.45
58662;BME280;44432;49.786;22.760;2022-09-12T09:56:33;99023.16;;;12.66;80.15
58662;BME280;44432;49.786;22.760;2022-09-12T09:59:14;99026.89;;;12.61;80.32
58662;BME280;44432;49.786;22.760;2022-09-12T10:01:47;99029.91;;;12.57;80.05
58662;BME280;44432;49.786;22.760;2022-09-12T10:04:20;99029.58;;;12.52;80.37
58662;BME280;44432;49.786;22.760;2022-09-12T10:06:53;99032.07;;;12.49;80.43
58662;BME280;44432;49.786;22.760;2022-09-12T10:09:27;99033.20;;;12.50;80.43
58662;BME280;44432;49.786;22.760;2022-09-12T10:11:58;99038.86;;;12.50;80.24
58662;BME280;44432;49.786;22.760;2022-09-12T10:14:38;99033.12;;;12.49;80.30
58662;BME280;44432;49.786;22.760;2022-09-12T10:17:30;99040.55;;;12.46;80.39
58662;BME280;44432;49.786;22.760;2022-09-12T10:20:02;99038.31;;;12.49;80.15
58662;BME280;44432;49.786;22.760;2022-09-12T10:22:33;99043.56;;;12.46;79.83
58662;BME280;44432;49.786;22.760;2022-09-12T10:25:13;99044.62;;;12.43;80.07
58662;BME280;44432;49.786;22.760;2022-09-12T10:27:53;99046.97;;;12.44;80.26
58662;BME280;44432;49.786;22.760;2022-09-12T10:30:26;99054.34;;;12.40;79.82
58662;BME280;44432;49.786;22.760;2022-09-12T10:33:05;99051.79;;;12.39;79.91
58662;BME280;44432;49.786;22.760;2022-09-12T10:35:46;99052.02;;;12.42;80.31
58662;BME280;44432;49.786;22.760;2022-09-12T10:38:22;99056.79;;;12.48;80.54
58662;BME280;44432;49.786;22.760;2022-09-12T10:40:59;99060.44;;;12.51;79.89
58662;BME280;44432;49.786;22.760;2022-09-12T10:43:36;99067.15;;;12.51;79.30
58662;BME280;44432;49.786;22.760;2022-09-12T10:46:30;99063.60;;;12.48;79.26
58662;BME280;44432;49.786;22.760;2022-09-12T10:49:21;99066.52;;;12.48;79.28
58662;BME280;44432;49.786;22.760;2022-09-12T10:51:53;99069.19;;;12.54;79.50
58662;BME280;44432;49.786;22.760;2022-09-12T10:54:26;99067.19;;;12.61;79.21
58662;BME280;44432;49.786;22.760;2022-09-12T10:57:16;99060.02;;;12.65;78.81
58662;BME280;44432;49.786;22.760;2022-09-12T11:00:10;99069.58;;;12.73;78.60
58662;BME280;44432;49.786;22.760;2022-09-12T11:02:54;99067.45;;;12.80;78.21
58662;BME280;44432;49.786;22.760;2022-09-12T11:05:40;99063.48;;;12.86;78.24
58662;BME280;44432;49.786;22.760;2022-09-12T11:08:23;99065.05;;;12.91;78.53
58662;BME280;44432;49.786;22.760;2022-09-12T11:11:04;99066.42;;;12.96;78.15
58662;BME280;44432;49.786;22.760;2022-09-12T11:13:49;99070.94;;;12.97;78.39
58662;BME280;44432;49.786;22.760;2022-09-12T11:16:26;99075.59;;;12.96;78.25
58662;BME280;44432;49.786;22.760;2022-09-12T11:19:23;99076.41;;;12.92;77.95
58662;BME280;44432;49.786;22.760;2022-09-12T11:22:07;99078.96;;;12.84;77.95
58662;BME280;44432;49.786;22.760;2022-09-12T11:25:06;99088.19;;;12.81;78.21
58662;BME280;44432;49.786;22.760;2022-09-12T11:27:53;99092.68;;;12.78;78.18
58662;BME280;44432;49.786;22.760;2022-09-12T11:30:36;99094.30;;;12.77;78.01
58662;BME280;44432;49.786;22.760;2022-09-12T11:33:36;99093.70;;;12.64;78.11
58662;BME280;44432;49.786;22.760;2022-09-12T11:36:18;99092.38;;;12.56;78.61
58662;BME280;44432;49.786;22.760;2022-09-12T11:38:51;99094.81;;;12.56;79.06
58662;BME280;44432;49.786;22.760;2022-09-12T11:41:27;99094.15;;;12.54;79.51
58662;BME280;44432;49.786;22.760;2022-09-12T11:44:07;99094.93;;;12.54;79.25
58662;BME280;44432;49.786;22.760;2022-09-12T11:46:42;99093.77;;;12.49;79.01
58662;BME280;44432;49.786;22.760;2022-09-12T11:49:19;99095.63;;;12.46;79.20
58662;BME280;44432;49.786;22.760;2022-09-12T11:51:55;99095.20;;;12.44;79.29
58662;BME280;44432;49.786;22.760;2022-09-12T11:54:31;99094.71;;;12.43;79.25
58662;BME280;44432;49.786;22.760;2022-09-12T11:57:07;99096.20;;;12.41;79.11
58662;BME280;44432;49.786;22.760;2022-09-12T11:59:45;99092.94;;;12.38;79.30
58662;BME280;44432;49.786;22.760;2022-09-12T12:02:23;99096.34;;;12.32;79.21
58662;BME280;44432;49.786;22.760;2022-09-12T12:05:12;99100.13;;;12.24;79.32
58662;BME280;44432;49.786;22.760;2022-09-12T12:07:52;99103.27;;;12.21;79.69
58662;BME280;44432;49.786;22.760;2022-09-12T12:10:30;99107.41;;;12.19;79.80
58662;BME280;44432;49.786;22.760;2022-09-12T12:13:04;99112.02;;;12.19;79.84
58662;BME280;44432;49.786;22.760;2022-09-12T12:15:36;99109.68;;;12.17;79.58
58662;BME280;44432;49.786;22.760;2022-09-12T12:18:17;99106.05;;;12.14;79.62
58662;BME280;44432;49.786;22.760;2022-09-12T12:20:48;99108.04;;;12.15;79.78
58662;BME280;44432;49.786;22.760;2022-09-12T12:23:30;99107.61;;;12.14;79.55
58662;BME280;44432;49.786;22.760;2022-09-12T12:26:04;99110.70;;;12.20;79.73
58662;BME280;44432;49.786;22.760;2022-09-12T12:28:59;99107.98;;;12.26;79.84
58662;BME280;44432;49.786;22.760;2022-09-12T12:31:30;99107.92;;;12.36;80.04
58662;BME280;44432;49.786;22.760;2022-09-12T12:34:19;99104.27;;;12.47;79.61
58662;BME280;44432;49.786;22.760;2022-09-12T12:36:51;99106.20;;;12.71;79.51
58662;BME280;44432;49.786;22.760;2022-09-12T12:46:10;99107.76;;;13.05;77.48
58662;BME280;44432;49.786;22.760;2022-09-12T12:49:00;99106.70;;;13.14;77.62
58662;BME280;44432;49.786;22.760;2022-09-12T12:51:56;99106.98;;;13.31;77.49
58662;BME280;44432;49.786;22.760;2022-09-12T12:54:56;99104.81;;;13.47;77.46
58662;BME280;44432;49.786;22.760;2022-09-12T12:57:39;99106.17;;;13.61;76.34
58662;BME280;44432;49.786;22.760;2022-09-12T13:00:29;99102.88;;;13.63;76.15
58662;BME280;44432;49.786;22.760;2022-09-12T13:03:09;99105.97;;;13.59;75.82
58662;BME280;44432;49.786;22.760;2022-09-12T13:05:50;99102.89;;;13.49;75.85
58662;BME280;44432;49.786;22.760;2022-09-12T13:08:32;99109.98;;;13.40;75.90
58662;BME280;44432;49.786;22.760;2022-09-12T13:11:09;99102.84;;;13.33;75.83
58662;BME280;44432;49.786;22.760;2022-09-12T13:13:51;99103.25;;;13.29;76.08
58662;BME280;44432;49.786;22.760;2022-09-12T13:16:34;99108.48;;;13.26;76.10
58662;BME280;44432;49.786;22.760;2022-09-12T13:19:10;99110.55;;;13.17;75.88
58662;BME280;44432;49.786;22.760;2022-09-12T13:21:58;99112.20;;;13.08;75.87
58662;BME280;44432;49.786;22.760;2022-09-12T13:24:29;99120.38;;;12.99;75.98
58662;BME280;44432;49.786;22.760;2022-09-12T13:27:00;99124.63;;;12.92;76.10
58662;BME280;44432;49.786;22.760;2022-09-12T13:29:31;99133.94;;;12.80;76.21
58662;BME280;44432;49.786;22.760;2022-09-12T13:32:03;99134.44;;;12.65;76.18
58662;BME280;44432;49.786;22.760;2022-09-12T13:34:36;99137.92;;;12.53;76.61
58662;BME280;44432;49.786;22.760;2022-09-12T13:37:38;99137.98;;;12.43;76.83
58662;BME280;44432;49.786;22.760;2022-09-12T13:40:27;99138.11;;;12.47;77.42
58662;BME280;44432;49.786;22.760;2022-09-12T13:43:19;99136.64;;;12.62;77.29
58662;BME280;44432;49.786;22.760;2022-09-12T13:45:53;99139.81;;;12.70;77.12